createdAt,value
2022-08-25T00:00:18.186Z,98019.50
2022-08-25T00:02:55.455Z,98016.75
2022-08-25T00:05:27.703Z,98018.34
2022-08-25T00:07:56.888Z,98016.97
2022-08-25T00:10:26.131Z,98012.28
2022-08-25T00:12:53.712Z,98013.09
2022-08-25T00:15:23.695Z,98016.56
2022-08-25T00:17:51.927Z,98015.50
2022-08-25T00:20:20.178Z,98014.91
2022-08-25T00:22:48.903Z,98018.97
2022-08-25T00:25:17.496Z,98014.25
2022-08-25T00:27:47.530Z,98009.03
2022-08-25T00:30:16.863Z,98001.97
2022-08-25T00:32:55.404Z,98006.84
2022-08-25T00:35:26.819Z,98007.34
2022-08-25T00:37:54.481Z,98009.22
2022-08-25T00:40:23.549Z,98008.09
2022-08-25T00:42:52.603Z,98009.44
2022-08-25T00:45:20.196Z,98012.63
2022-08-25T00:47:48.089Z,98012.63
2022-08-25T00:50:17.260Z,98007.69
2022-08-25T00:52:48.959Z,98013.38
2022-08-25T00:55:21.727Z,98014.47
2022-08-25T00:57:56.975Z,98008.19
2022-08-25T01:00:29.028Z,98008.72
2022-08-25T01:02:57.894Z,98006.22
2022-08-25T01:05:27.534Z,98004.00
2022-08-25T01:07:58.578Z,98001.53
2022-08-25T01:10:27.872Z,98004.75
2022-08-25T01:13:00.932Z,98001.44
2022-08-25T01:15:29.274Z,97994.38
2022-08-25T01:17:59.753Z,97997.31
2022-08-25T01:20:30.972Z,97995.94
2022-08-25T01:23:00.619Z,97986.94
2022-08-25T01:25:38.980Z,97994.28
2022-08-25T01:28:07.278Z,97993.13
2022-08-25T01:30:35.576Z,97988.75
2022-08-25T01:33:04.934Z,97984.38
2022-08-25T01:35:32.837Z,97986.31
2022-08-25T01:38:02.448Z,97983.81
2022-08-25T01:40:31.272Z,97988.66
2022-08-25T01:43:07.491Z,97981.84
2022-08-25T01:45:35.608Z,97983.41
2022-08-25T01:48:04.393Z,97982.56
2022-08-25T01:50:32.309Z,97985.31
2022-08-25T01:53:04.913Z,97975.16
2022-08-25T01:55:51.395Z,97980.03
2022-08-25T01:58:19.372Z,97978.38
2022-08-25T02:00:47.881Z,97977.81
2022-08-25T02:03:17.600Z,97986.22
2022-08-25T02:05:48.096Z,97983.72
2022-08-25T02:08:18.236Z,97990.50
2022-08-25T02:10:46.386Z,97987.22
2022-08-25T02:13:14.410Z,97990.19
2022-08-25T02:15:44.416Z,97987.69
2022-08-25T02:18:12.848Z,97988.78
2022-08-25T02:20:40.653Z,97980.84
2022-08-25T02:23:08.472Z,97976.47
2022-08-25T02:25:38.142Z,97974.03
2022-08-25T02:28:06.768Z,97976.16
2022-08-25T02:30:34.607Z,97970.13
2022-08-25T02:33:02.253Z,97972.25
2022-08-25T02:35:30.283Z,97966.25
2022-08-25T02:37:57.856Z,97965.41
2022-08-25T02:40:25.557Z,97954.78
2022-08-25T02:42:55.461Z,97956.09
2022-08-25T02:45:23.072Z,97959.88
2022-08-25T02:47:50.814Z,97960.94
2022-08-25T02:50:18.606Z,97956.84
2022-08-25T02:52:46.310Z,97960.38
2022-08-25T02:55:14.641Z,97957.06
2022-08-25T02:57:42.848Z,97948.09
2022-08-25T03:00:14.051Z,97962.19
2022-08-25T03:02:42.353Z,97957.81
2022-08-25T03:05:13.026Z,97956.41
2022-08-25T03:07:40.937Z,97968.94
2022-08-25T03:10:13.689Z,97964.81
2022-08-25T03:12:41.938Z,97967.78
2022-08-25T03:15:12.947Z,97966.63
2022-08-25T03:17:44.421Z,97967.69
2022-08-25T03:20:13.896Z,97955.97
2022-08-25T03:22:41.486Z,97960.59
2022-08-25T03:25:33.578Z,97960.84
2022-08-25T03:28:02.029Z,97961.09
2022-08-25T03:30:30.989Z,97958.03
2022-08-25T03:32:59.933Z,97960.75
2022-08-25T03:35:27.893Z,97958.28
2022-08-25T03:37:57.108Z,97963.97
2022-08-25T03:40:24.943Z,97966.09
2022-08-25T03:42:52.932Z,97960.94
2022-08-25T03:45:20.926Z,97956.56
2022-08-25T03:47:50.228Z,97963.88
2022-08-25T03:50:20.648Z,97958.66
2022-08-25T03:52:53.791Z,97961.66
2022-08-25T03:55:23.176Z,97958.94
2022-08-25T03:57:51.713Z,97949.34
2022-08-25T04:00:20.057Z,97951.50
2022-08-25T04:02:47.942Z,97949.84
2022-08-25T04:05:16.251Z,97945.47
2022-08-25T04:07:45.467Z,97945.97
2022-08-25T04:10:13.518Z,97943.53
2022-08-25T04:12:41.764Z,97946.25
2022-08-25T04:15:10.881Z,97941.59
2022-08-25T04:17:40.757Z,97945.63
2022-08-25T04:20:11.328Z,97945.06
2022-08-25T04:22:44.915Z,97945.53
2022-08-25T04:25:14.929Z,97946.38
2022-08-25T04:27:42.594Z,97947.19
2022-08-25T04:30:11.719Z,97950.41
2022-08-25T04:32:39.300Z,97945.53
2022-08-25T04:35:08.176Z,97946.84
2022-08-25T04:37:36.001Z,97943.31
2022-08-25T04:40:04.835Z,97954.50
2022-08-25T04:42:34.242Z,97953.13
2022-08-25T04:45:04.018Z,97961.28
2022-08-25T04:47:31.569Z,97964.00
2022-08-25T04:49:59.231Z,97960.44
2022-08-25T04:52:26.782Z,97969.41
2022-08-25T04:54:54.464Z,97968.59
2022-08-25T04:57:22.038Z,97968.00
2022-08-25T04:59:51.187Z,97966.09
2022-08-25T05:02:19.508Z,97964.47
2022-08-25T05:04:47.184Z,97966.94
2022-08-25T05:07:14.851Z,97966.44
2022-08-25T05:09:42.582Z,97964.31
2022-08-25T05:12:10.558Z,97957.09
2022-08-25T05:14:40.259Z,97955.19
2022-08-25T05:17:09.857Z,97949.53
2022-08-25T05:19:37.546Z,97950.91
2022-08-25T05:22:05.581Z,97954.47
2022-08-25T05:24:33.262Z,97956.13
2022-08-25T05:27:01.162Z,97949.88
2022-08-25T05:29:28.752Z,97942.78
2022-08-25T05:31:56.676Z,97943.94
2022-08-25T05:34:25.853Z,97944.66
2022-08-25T05:36:54.720Z,97941.91
2022-08-25T05:39:22.358Z,97940.78
2022-08-25T05:41:49.976Z,97936.25
2022-08-25T05:44:20.832Z,97933.19
2022-08-25T05:46:49.183Z,97941.56
2022-08-25T05:49:16.746Z,97933.41
2022-08-25T05:51:45.762Z,97935.66
2022-08-25T05:54:13.369Z,97945.13
2022-08-25T05:56:41.161Z,97936.22
2022-08-25T05:59:09.569Z,97939.13
2022-08-25T06:01:55.016Z,97947.00
2022-08-25T06:04:22.678Z,97935.50
2022-08-25T06:06:53.847Z,97933.34
2022-08-25T06:09:21.953Z,97933.34
2022-08-25T06:11:52.937Z,97935.50
2022-08-25T06:14:22.726Z,97932.78
2022-08-25T06:16:51.565Z,97934.44
2022-08-25T06:19:19.603Z,97939.88
2022-08-25T06:21:47.152Z,97937.22
2022-08-25T06:24:16.351Z,97947.28
2022-08-25T06:26:44.277Z,97938.63
2022-08-25T06:29:14.165Z,97931.88
2022-08-25T06:31:42.451Z,97940.66
2022-08-25T06:34:10.699Z,97932.84
2022-08-25T06:36:38.256Z,97930.38
2022-08-25T06:39:06.018Z,97931.13
2022-08-25T06:41:36.707Z,97927.41
2022-08-25T06:44:05.966Z,97931.03
2022-08-25T06:46:36.578Z,97928.25
2022-08-25T06:49:05.939Z,97923.19
2022-08-25T06:51:36.273Z,97914.19
2022-08-25T06:54:05.121Z,97922.81
2022-08-25T06:56:32.970Z,97907.16
2022-08-25T06:59:03.517Z,97903.53
2022-08-25T07:01:32.288Z,97913.69
2022-08-25T07:04:01.819Z,97909.91
2022-08-25T07:06:32.908Z,97913.69
2022-08-25T07:09:00.776Z,97913.81
2022-08-25T07:11:29.206Z,97909.81
2022-08-25T07:13:56.823Z,97918.13
2022-08-25T07:16:25.791Z,97909.22
2022-08-25T07:18:57.613Z,97905.75
2022-08-25T07:21:33.436Z,97908.78
2022-08-25T07:24:01.698Z,97905.81
2022-08-25T07:26:39.421Z,97910.53
2022-08-25T07:29:10.537Z,97907.91
2022-08-25T07:31:40.189Z,97908.22
2022-08-25T07:34:26.557Z,97912.16
2022-08-25T07:36:56.890Z,97917.66
2022-08-25T07:39:25.367Z,97920.00
2022-08-25T07:41:54.116Z,97911.31
2022-08-25T07:44:23.657Z,97917.75
2022-08-25T07:46:53.758Z,97919.53
2022-08-25T07:52:09.768Z,97915.50
2022-08-25T07:54:38.448Z,97917.16
2022-08-25T07:57:08.336Z,97916.88
2022-08-25T07:59:39.946Z,97918.50
2022-08-25T08:02:16.050Z,97928.69
2022-08-25T08:04:48.472Z,97919.75
2022-08-25T08:07:17.770Z,97922.47
2022-08-25T08:09:45.850Z,97920.41
2022-08-25T08:12:13.531Z,97916.69
2022-08-25T08:14:45.047Z,97907.59
2022-08-25T08:17:15.217Z,97911.75
2022-08-25T08:19:45.313Z,97910.16
2022-08-25T08:22:15.617Z,97905.13
2022-08-25T08:24:54.745Z,97906.13
2022-08-25T08:27:24.737Z,97907.81
2022-08-25T08:29:52.365Z,97899.44
2022-08-25T08:32:31.421Z,97905.44
2022-08-25T08:35:09.180Z,97898.09
2022-08-25T08:37:41.985Z,97901.38
2022-08-25T08:40:11.472Z,97894.22
2022-08-25T08:43:02.421Z,97895.13
2022-08-25T08:45:40.480Z,97885.03
2022-08-25T08:48:45.746Z,97877.31
2022-08-25T08:51:20.726Z,97883.22
2022-08-25T08:53:57.220Z,97881.56
2022-08-25T08:56:30.660Z,97889.03
2022-08-25T08:59:05.639Z,97888.88
2022-08-25T09:01:43.558Z,97889.53
2022-08-25T09:04:20.970Z,97886.28
2022-08-25T09:06:52.186Z,97902.13
2022-08-25T09:09:26.309Z,97884.69
2022-08-25T09:12:05.897Z,97886.66
2022-08-25T09:15:02.759Z,97891.00
2022-08-25T09:18:12.140Z,97884.41
2022-08-25T09:20:58.901Z,97885.03
2022-08-25T09:23:35.692Z,97889.69
2022-08-25T09:26:19.107Z,97879.84
2022-08-25T09:28:55.149Z,97874.63
2022-08-25T09:31:29.867Z,97880.09
2022-08-25T09:33:59.418Z,97875.47
2022-08-25T09:36:28.924Z,97874.06
2022-08-25T09:38:56.726Z,97870.75
2022-08-25T09:41:41.843Z,97864.53
2022-08-25T09:44:19.355Z,97867.00
2022-08-25T09:47:01.668Z,97865.06
2022-08-25T09:49:38.755Z,97856.75
2022-08-25T09:52:26.326Z,97858.63
2022-08-25T09:54:55.474Z,97849.78
2022-08-25T09:57:36.172Z,97852.06
2022-08-25T10:00:16.185Z,97851.38
2022-08-25T10:02:45.867Z,97837.88
2022-08-25T10:05:25.881Z,97833.16
2022-08-25T10:07:58.207Z,97833.16
2022-08-25T10:10:32.426Z,97828.44
2022-08-25T10:13:02.037Z,97822.53
2022-08-25T10:15:33.177Z,97825.94
2022-08-25T10:18:25.742Z,97827.34
2022-08-25T10:21:07.681Z,97818.72
2022-08-25T10:23:40.805Z,97818.53
2022-08-25T10:26:24.232Z,97821.13
2022-08-25T10:29:07.351Z,97816.91
2022-08-25T10:31:41.416Z,97804.13
2022-08-25T10:34:23.075Z,97800.22
2022-08-25T10:37:00.962Z,97788.72
2022-08-25T10:39:40.619Z,97778.00
2022-08-25T10:42:26.408Z,97773.00
2022-08-25T10:45:27.017Z,97783.97
2022-08-25T10:48:23.108Z,97772.06
2022-08-25T10:50:57.376Z,97759.72
2022-08-25T10:53:30.151Z,97757.06
2022-08-25T10:56:07.590Z,97756.06
2022-08-25T10:59:04.596Z,97772.75
2022-08-25T11:01:45.159Z,97766.19
2022-08-25T11:04:17.229Z,97761.84
2022-08-25T11:06:53.094Z,97763.06
2022-08-25T11:09:26.672Z,97768.06
2022-08-25T11:11:59.480Z,97764.81
2022-08-25T11:14:34.660Z,97760.19
2022-08-25T11:17:07.295Z,97762.16
2022-08-25T11:19:38.719Z,97756.22
2022-08-25T11:22:19.319Z,97757.09
2022-08-25T11:25:04.191Z,97755.69
2022-08-25T11:27:37.901Z,97756.28
2022-08-25T11:30:09.423Z,97753.09
2022-08-25T11:32:38.772Z,97750.41
2022-08-25T11:35:09.636Z,97744.97
2022-08-25T11:37:53.922Z,97750.59
2022-08-25T11:40:37.112Z,97753.81
2022-08-25T11:43:22.669Z,97752.13
2022-08-25T11:46:06.404Z,97747.72
2022-08-25T11:48:43.533Z,97729.94
2022-08-25T11:51:12.987Z,97731.88
2022-08-25T11:53:42.525Z,97730.97
2022-08-25T11:56:12.668Z,97729.69
2022-08-25T11:58:49.793Z,97739.88
2022-08-25T12:02:02.607Z,97733.81
2022-08-25T12:04:44.828Z,97725.81
2022-08-25T12:07:23.207Z,97723.16
2022-08-25T12:10:16.368Z,97729.66
2022-08-25T12:13:04.796Z,97724.97
2022-08-25T12:16:00.822Z,97725.56
2022-08-25T12:18:46.083Z,97730.91
2022-08-25T12:21:16.362Z,97724.44
2022-08-25T12:23:47.119Z,97727.03
2022-08-25T12:26:29.048Z,97733.94
2022-08-25T12:29:08.463Z,97728.31
2022-08-25T12:32:04.340Z,97730.09
2022-08-25T12:34:47.827Z,97733.16
2022-08-25T12:37:17.856Z,97735.19
2022-08-25T12:39:55.632Z,97730.63
2022-08-25T12:42:32.337Z,97723.47
2022-08-25T12:45:15.848Z,97718.66
2022-08-25T12:47:47.479Z,97721.34
2022-08-25T12:50:29.188Z,97727.50
2022-08-25T12:53:08.278Z,97719.00
2022-08-25T12:55:38.345Z,97723.13
2022-08-25T12:58:07.691Z,97716.94
2022-08-25T13:00:52.702Z,97718.56
2022-08-25T13:06:32.188Z,97707.00
2022-08-25T13:09:24.005Z,97708.53
2022-08-25T13:12:01.504Z,97704.69
2022-08-25T13:14:38.472Z,97706.03
2022-08-25T13:17:06.885Z,97697.53
2022-08-25T13:19:39.058Z,97697.78
2022-08-25T13:22:16.549Z,97695.38
2022-08-25T13:24:47.508Z,97692.13
2022-08-25T13:27:23.196Z,97691.97
2022-08-25T13:29:52.905Z,97686.66
2022-08-25T13:32:32.036Z,97686.13
2022-08-25T13:35:17.526Z,97680.44
2022-08-25T13:37:47.426Z,97677.13
2022-08-25T13:40:26.756Z,97674.31
2022-08-25T13:43:01.153Z,97677.53
2022-08-25T13:45:34.724Z,97666.56
2022-08-25T13:48:23.145Z,97668.16
2022-08-25T13:51:09.019Z,97662.34
2022-08-25T13:53:38.555Z,97661.22
2022-08-25T13:56:07.505Z,97657.94
2022-08-25T13:58:45.012Z,97657.53
2022-08-25T14:01:22.829Z,97647.53
2022-08-25T14:04:33.036Z,97665.50
2022-08-25T14:07:26.401Z,97652.53
2022-08-25T14:09:56.535Z,97652.94
2022-08-25T14:12:30.374Z,97655.41
2022-08-25T14:15:04.576Z,97649.97
2022-08-25T14:17:39.583Z,97645.97
2022-08-25T14:20:18.250Z,97647.31
2022-08-25T14:22:47.306Z,97643.63
2022-08-25T14:25:15.802Z,97637.84
2022-08-25T14:28:06.839Z,97640.78
2022-08-25T14:30:35.806Z,97632.59
2022-08-25T14:33:04.976Z,97636.63
2022-08-25T14:35:34.594Z,97634.06
2022-08-25T14:38:08.347Z,97637.94
2022-08-25T14:40:36.136Z,97638.75
2022-08-25T14:43:03.842Z,97630.69
2022-08-25T14:45:32.805Z,97627.66
2022-08-25T14:48:04.267Z,97631.34
2022-08-25T14:50:41.231Z,97629.91
2022-08-25T14:53:12.798Z,97619.56
2022-08-25T14:55:40.796Z,97617.00
2022-08-25T14:58:08.709Z,97615.97
2022-08-25T15:00:38.419Z,97608.63
2022-08-25T15:03:06.206Z,97612.13
2022-08-25T15:05:34.200Z,97611.41
2022-08-25T15:08:19.737Z,97606.94
2022-08-25T15:10:49.954Z,97614.41
2022-08-25T15:13:17.635Z,97608.13
2022-08-25T15:15:52.323Z,97599.34
2022-08-25T15:18:21.531Z,97611.41
2022-08-25T15:20:50.085Z,97601.44
2022-08-25T15:23:18.423Z,97601.16
2022-08-25T15:25:48.065Z,97604.66
2022-08-25T15:28:17.695Z,97603.41
2022-08-25T15:30:49.412Z,97598.16
2022-08-25T15:33:17.330Z,97594.91
2022-08-25T15:35:45.635Z,97596.13
2022-08-25T15:38:13.441Z,97593.72
2022-08-25T15:40:41.191Z,97599.72
2022-08-25T15:43:08.918Z,97604.34
2022-08-25T15:45:38.258Z,97601.16
2022-08-25T15:48:09.484Z,97597.53
2022-08-25T15:50:38.595Z,97594.56
2022-08-25T15:53:08.378Z,97581.72
2022-08-25T15:55:39.538Z,97584.69
2022-08-25T15:58:08.689Z,97579.31
2022-08-25T16:00:38.681Z,97571.53
2022-08-25T16:03:07.973Z,97574.22
2022-08-25T16:05:37.314Z,97569.53
2022-08-25T16:08:05.805Z,97563.53
2022-08-25T16:10:37.901Z,97573.22
2022-08-25T16:13:07.024Z,97570.47
2022-08-25T16:15:38.982Z,97568.00
2022-08-25T16:18:08.300Z,97572.28
2022-08-25T16:20:37.405Z,97576.66
2022-08-25T16:23:05.413Z,97573.38
2022-08-25T16:25:33.309Z,97578.69
2022-08-25T16:28:04.410Z,97576.84
2022-08-25T16:30:32.019Z,97576.56
2022-08-25T16:33:01.163Z,97577.97
2022-08-25T16:35:29.486Z,97579.22
2022-08-25T16:37:57.366Z,97569.16
2022-08-25T16:40:26.506Z,97568.16
2022-08-25T16:42:54.829Z,97571.63
2022-08-25T16:45:23.005Z,97575.59
2022-08-25T16:47:51.281Z,97569.06
2022-08-25T16:50:20.523Z,97575.53
2022-08-25T16:53:07.899Z,97570.03
2022-08-25T16:55:39.010Z,97567.78
2022-08-25T16:58:07.711Z,97563.69
2022-08-25T17:00:38.024Z,97566.44
2022-08-25T17:03:06.746Z,97573.38
2022-08-25T17:05:41.843Z,97559.81
2022-08-25T17:08:27.426Z,97566.13
2022-08-25T17:10:55.107Z,97564.19
2022-08-25T17:13:23.129Z,97555.94
2022-08-25T17:15:52.317Z,97559.09
2022-08-25T17:18:20.519Z,97556.25
2022-08-25T17:20:51.278Z,97566.63
2022-08-25T17:23:21.149Z,97559.81
2022-08-25T17:25:52.049Z,97551.72
2022-08-25T17:28:19.652Z,97547.84
2022-08-25T17:30:48.903Z,97550.97
2022-08-25T17:33:18.051Z,97554.44
2022-08-25T17:35:55.780Z,97552.41
2022-08-25T17:38:26.437Z,97555.09
2022-08-25T17:40:58.995Z,97551.81
2022-08-25T17:43:27.774Z,97555.84
2022-08-25T17:45:57.392Z,97552.69
2022-08-25T17:48:26.279Z,97551.16
2022-08-25T17:50:55.843Z,97554.56
2022-08-25T17:53:23.451Z,97552.53
2022-08-25T17:56:00.238Z,97550.63
2022-08-25T17:58:29.228Z,97557.00
2022-08-25T18:00:57.260Z,97552.09
2022-08-25T18:03:26.600Z,97548.31
2022-08-25T18:05:57.211Z,97551.13
2022-08-25T18:08:32.327Z,97553.94
2022-08-25T18:11:02.975Z,97551.31
2022-08-25T18:13:31.674Z,97563.44
2022-08-25T18:15:59.516Z,97557.75
2022-08-25T18:18:28.002Z,97558.91
2022-08-25T18:20:57.224Z,97557.34
2022-08-25T18:23:24.815Z,97562.63
2022-08-25T18:25:52.541Z,97563.50
2022-08-25T18:28:28.763Z,97557.50
2022-08-25T18:30:56.812Z,97563.66
2022-08-25T18:33:24.531Z,97569.91
2022-08-25T18:35:52.171Z,97568.59
2022-08-25T18:38:38.632Z,97565.59
2022-08-25T18:41:11.557Z,97570.03
2022-08-25T18:43:39.612Z,97564.31
2022-08-25T18:46:08.210Z,97571.50
2022-08-25T18:48:38.394Z,97569.63
2022-08-25T18:51:10.555Z,97580.88
2022-08-25T18:53:50.244Z,97577.91
2022-08-25T18:56:19.302Z,97584.03
2022-08-25T18:58:47.476Z,97575.88
2022-08-25T19:01:15.955Z,97584.66
2022-08-25T19:03:44.352Z,97588.00
2022-08-25T19:06:12.078Z,97587.47
2022-08-25T19:08:41.874Z,97585.06
2022-08-25T19:11:10.752Z,97585.38
2022-08-25T19:13:38.579Z,97591.72
2022-08-25T19:16:11.848Z,97582.44
2022-08-25T19:18:41.620Z,97587.13
2022-08-25T19:21:09.988Z,97581.13
2022-08-25T19:23:39.042Z,97587.13
2022-08-25T19:26:13.790Z,97585.28
2022-08-25T19:28:45.584Z,97580.66
2022-08-25T19:31:14.307Z,97576.28
2022-08-25T19:33:44.669Z,97574.38
2022-08-25T19:36:12.865Z,97573.34
2022-08-25T19:38:40.521Z,97581.88
2022-08-25T19:41:14.099Z,97575.88
2022-08-25T19:43:56.488Z,97573.97
2022-08-25T19:46:32.602Z,97576.72
2022-08-25T19:49:06.488Z,97574.28
2022-08-25T19:51:34.962Z,97572.13
2022-08-25T19:54:03.256Z,97574.59
2022-08-25T19:56:35.127Z,97573.53
2022-08-25T19:59:04.541Z,97571.66
2022-08-25T20:01:33.233Z,97571.13
2022-08-25T20:04:03.490Z,97574.72
2022-08-25T20:06:32.106Z,97573.94
2022-08-25T20:09:00.631Z,97565.47
2022-08-25T20:11:29.152Z,97575.63
2022-08-25T20:14:01.648Z,97572.31
2022-08-25T20:16:31.490Z,97576.16
2022-08-25T20:19:00.025Z,97582.22
2022-08-25T20:24:16.460Z,97581.09
2022-08-25T20:26:44.164Z,97585.50
2022-08-25T20:29:14.137Z,97591.00
2022-08-25T20:31:41.807Z,97588.81
2022-08-25T20:34:11.382Z,97591.31
2022-08-25T20:36:49.847Z,97592.41
2022-08-25T20:39:18.375Z,97589.97
2022-08-25T20:41:48.315Z,97600.38
2022-08-25T20:44:18.141Z,97594.63
2022-08-25T20:46:46.164Z,97589.69
2022-08-25T20:49:14.583Z,97599.28
2022-08-25T20:51:42.865Z,97599.56
2022-08-25T20:54:14.077Z,97597.13
2022-08-25T20:56:42.607Z,97597.69
2022-08-25T20:59:11.603Z,97595.22
2022-08-25T21:01:42.398Z,97596.06
2022-08-25T21:04:14.522Z,97601.53
2022-08-25T21:06:42.660Z,97598.81
2022-08-25T21:09:16.048Z,97604.03
2022-08-25T21:11:45.072Z,97608.16
2022-08-25T21:14:13.317Z,97602.13
2022-08-25T21:16:46.433Z,97602.41
2022-08-25T21:19:15.938Z,97608.97
2022-08-25T21:21:44.299Z,97613.38
2022-08-25T21:24:12.662Z,97607.91
2022-08-25T21:26:48.550Z,97608.19
2022-08-25T21:29:17.350Z,97610.97
2022-08-25T21:31:46.597Z,97604.16
2022-08-25T21:34:17.106Z,97606.31
2022-08-25T21:36:46.843Z,97611.50
2022-08-25T21:39:15.420Z,97603.34
2022-08-25T21:41:45.092Z,97606.31
2022-08-25T21:44:13.852Z,97596.47
2022-08-25T21:46:42.267Z,97595.13
2022-08-25T21:49:24.063Z,97597.59
2022-08-25T21:52:00.067Z,97600.06
2022-08-25T21:54:29.427Z,97593.78
2022-08-25T21:57:01.107Z,97603.31
2022-08-25T21:59:30.709Z,97608.00
2022-08-25T22:02:00.631Z,97610.44
2022-08-25T22:04:30.597Z,97611.00
2022-08-25T22:06:59.220Z,97602.25
2022-08-25T22:09:28.557Z,97601.44
2022-08-25T22:11:56.933Z,97601.97
2022-08-25T22:14:26.729Z,97605.25
2022-08-25T22:16:54.872Z,97605.00
2022-08-25T22:19:23.379Z,97601.47
2022-08-25T22:21:54.314Z,97608.59
2022-08-25T22:24:22.524Z,97605.28
2022-08-25T22:26:55.525Z,97598.44
2022-08-25T22:29:25.137Z,97605.03
2022-08-25T22:31:53.359Z,97603.38
2022-08-25T22:34:30.536Z,97603.13
2022-08-25T22:37:01.598Z,97603.69
2022-08-25T22:39:29.894Z,97604.47
2022-08-25T22:41:57.716Z,97603.69
2022-08-25T22:44:26.523Z,97606.13
2022-08-25T22:46:54.606Z,97602.03
2022-08-25T22:49:22.362Z,97596.84
2022-08-25T22:51:50.929Z,97603.41
2022-08-25T22:54:20.042Z,97598.47
2022-08-25T22:56:47.628Z,97604.75
2022-08-25T22:59:16.186Z,97606.41
2022-08-25T23:01:45.175Z,97603.13
2022-08-25T23:04:14.677Z,97603.41
2022-08-25T23:06:42.955Z,97602.59
2022-08-25T23:09:11.662Z,97598.22
2022-08-25T23:11:41.138Z,97596.84
2022-08-25T23:14:10.250Z,97600.97
2022-08-25T23:16:38.758Z,97590.03
2022-08-25T23:19:06.495Z,97583.75
2022-08-25T23:21:52.990Z,97587.31
2022-08-25T23:24:27.503Z,97588.38
2022-08-25T23:27:00.695Z,97583.75
2022-08-25T23:29:28.714Z,97581.00
2022-08-25T23:31:57.600Z,97583.22
2022-08-25T23:34:26.043Z,97582.94
2022-08-25T23:36:54.442Z,97581.84
2022-08-25T23:39:23.475Z,97572.84
2022-08-25T23:41:52.398Z,97573.66
2022-08-25T23:44:23.220Z,97573.34
2022-08-25T23:46:53.741Z,97576.59
2022-08-25T23:49:23.503Z,97566.25
2022-08-25T23:51:53.095Z,97568.44
2022-08-25T23:54:22.352Z,97573.34
2022-08-25T23:56:58.872Z,97571.44
2022-08-25T23:59:27.793Z,97567.34
